sensor_id;sensor_type;location;lat;lon;timestamp;temperature;humidity
52731;DHT22;38624;53.242;6.974;2023-07-20T00:01:08;14.10;99.90
52731;DHT22;38624;53.242;6.974;2023-07-20T00:03:34;14.10;99.90
52731;DHT22;38624;53.242;6.974;2023-07-20T00:05:59;14.10;99.90
52731;DHT22;38624;53.242;6.974;2023-07-20T00:08:25;14.10;99.90
52731;DHT22;38624;53.242;6.974;2023-07-20T00:10:51;14.10;99.90
52731;DHT22;38624;53.242;6.974;2023-07-20T00:13:16;14.00;99.90
52731;DHT22;38624;53.242;6.974;2023-07-20T00:15:44;14.00;99.90
52731;DHT22;38624;53.242;6.974;2023-07-20T00:18:10;14.00;99.90
52731;DHT22;38624;53.242;6.974;2023-07-20T00:20:35;14.00;99.90
52731;DHT22;38624;53.242;6.974;2023-07-20T00:23:01;14.00;99.90
52731;DHT22;38624;53.242;6.974;2023-07-20T00:25:27;14.00;99.90
52731;DHT22;38624;53.242;6.974;2023-07-20T00:27:52;14.00;99.90
52731;DHT22;38624;53.242;6.974;2023-07-20T00:30:18;14.10;99.90
52731;DHT22;38624;53.242;6.974;2023-07-20T00:32:44;14.00;99.90
52731;DHT22;38624;53.242;6.974;2023-07-20T00:35:10;14.00;99.90
52731;DHT22;38624;53.242;6.974;2023-07-20T00:37:37;14.00;99.90
52731;DHT22;38624;53.242;6.974;2023-07-20T00:40:03;14.00;99.90
52731;DHT22;38624;53.242;6.974;2023-07-20T00:42:30;14.00;99.90
52731;DHT22;38624;53.242;6.974;2023-07-20T00:44:56;14.00;99.90
52731;DHT22;38624;53.242;6.974;2023-07-20T00:47:21;14.00;99.90
52731;DHT22;38624;53.242;6.974;2023-07-20T00:49:47;14.00;99.90
52731;DHT22;38624;53.242;6.974;2023-07-20T00:52:13;14.00;99.90
52731;DHT22;38624;53.242;6.974;2023-07-20T00:54:41;14.00;99.90
52731;DHT22;38624;53.242;6.974;2023-07-20T00:57:07;14.00;99.90
52731;DHT22;38624;53.242;6.974;2023-07-20T00:59:36;14.00;99.90
52731;DHT22;38624;53.242;6.974;2023-07-20T01:02:02;14.00;99.90
52731;DHT22;38624;53.242;6.974;2023-07-20T01:04:28;14.00;99.90
52731;DHT22;38624;53.242;6.974;2023-07-20T01:09:44;13.90;99.90
52731;DHT22;38624;53.242;6.974;2023-07-20T01:12:25;13.90;99.90
52731;DHT22;38624;53.242;6.974;2023-07-20T01:14:51;13.80;99.90
52731;DHT22;38624;53.242;6.974;2023-07-20T01:17:17;13.80;99.90
52731;DHT22;38624;53.242;6.974;2023-07-20T01:19:43;13.70;99.90
52731;DHT22;38624;53.242;6.974;2023-07-20T01:22:27;13.60;99.90
52731;DHT22;38624;53.242;6.974;2023-07-20T01:25:11;13.50;99.90
52731;DHT22;38624;53.242;6.974;2023-07-20T01:33:30;13.30;99.90
52731;DHT22;38624;53.242;6.974;2023-07-20T01:35:58;13.30;99.90
52731;DHT22;38624;53.242;6.974;2023-07-20T01:38:25;13.20;99.90
52731;DHT22;38624;53.242;6.974;2023-07-20T01:40:51;13.20;99.90
52731;DHT22;38624;53.242;6.974;2023-07-20T01:43:18;13.10;99.90
52731;DHT22;38624;53.242;6.974;2023-07-20T01:45:44;13.00;99.90
52731;DHT22;38624;53.242;6.974;2023-07-20T01:48:09;13.00;99.90
52731;DHT22;38624;53.242;6.974;2023-07-20T01:50:35;12.90;99.90
52731;DHT22;38624;53.242;6.974;2023-07-20T01:53:01;12.90;99.90
52731;DHT22;38624;53.242;6.974;2023-07-20T01:55:27;12.90;99.90
52731;DHT22;38624;53.242;6.974;2023-07-20T01:57:54;12.90;99.90
52731;DHT22;38624;53.242;6.974;2023-07-20T02:00:20;12.80;99.90
52731;DHT22;38624;53.242;6.974;2023-07-20T02:02:49;12.80;99.90
52731;DHT22;38624;53.242;6.974;2023-07-20T02:05:16;12.80;99.90
52731;DHT22;38624;53.242;6.974;2023-07-20T02:07:42;12.80;99.90
52731;DHT22;38624;53.242;6.974;2023-07-20T02:10:08;12.70;99.90
52731;DHT22;38624;53.242;6.974;2023-07-20T02:12:33;12.70;99.90
52731;DHT22;38624;53.242;6.974;2023-07-20T02:14:59;12.70;99.90
52731;DHT22;38624;53.242;6.974;2023-07-20T02:17:25;12.60;99.90
52731;DHT22;38624;53.242;6.974;2023-07-20T02:19:55;12.60;99.90
52731;DHT22;38624;53.242;6.974;2023-07-20T02:22:21;12.50;99.90
52731;DHT22;38624;53.242;6.974;2023-07-20T02:24:47;12.40;99.90
52731;DHT22;38624;53.242;6.974;2023-07-20T02:27:13;12.40;99.90
52731;DHT22;38624;53.242;6.974;2023-07-20T02:29:41;12.30;99.90
52731;DHT22;38624;53.242;6.974;2023-07-20T02:32:08;12.30;99.90
52731;DHT22;38624;53.242;6.974;2023-07-20T02:34:34;12.30;99.90
52731;DHT22;38624;53.242;6.974;2023-07-20T02:37:00;12.30;99.90
52731;DHT22;38624;53.242;6.974;2023-07-20T02:39:29;12.20;99.90
52731;DHT22;38624;53.242;6.974;2023-07-20T02:41:55;12.20;99.90
52731;DHT22;38624;53.242;6.974;2023-07-20T02:44:21;12.20;99.90
52731;DHT22;38624;53.242;6.974;2023-07-20T02:46:46;12.10;99.90
52731;DHT22;38624;53.242;6.974;2023-07-20T02:49:12;12.10;99.90
52731;DHT22;38624;53.242;6.974;2023-07-20T02:51:38;12.10;99.90
52731;DHT22;38624;53.242;6.974;2023-07-20T02:54:03;12.00;99.90
52731;DHT22;38624;53.242;6.974;2023-07-20T02:56:29;12.00;99.90
52731;DHT22;38624;53.242;6.974;2023-07-20T02:58:55;12.00;99.90
52731;DHT22;38624;53.242;6.974;2023-07-20T03:01:21;11.90;99.90
52731;DHT22;38624;53.242;6.974;2023-07-20T03:03:46;11.90;99.90
52731;DHT22;38624;53.242;6.974;2023-07-20T03:06:16;11.90;99.90
52731;DHT22;38624;53.242;6.974;2023-07-20T03:08:42;11.90;99.90
52731;DHT22;38624;53.242;6.974;2023-07-20T03:11:14;11.80;99.90
52731;DHT22;38624;53.242;6.974;2023-07-20T03:13:43;11.80;99.90
52731;DHT22;38624;53.242;6.974;2023-07-20T03:16:10;11.80;99.90
52731;DHT22;38624;53.242;6.974;2023-07-20T03:18:40;11.70;99.90
52731;DHT22;38624;53.242;6.974;2023-07-20T03:21:09;11.70;99.90
52731;DHT22;38624;53.242;6.974;2023-07-20T03:23:39;11.70;99.90
52731;DHT22;38624;53.242;6.974;2023-07-20T03:26:06;11.70;99.90
52731;DHT22;38624;53.242;6.974;2023-07-20T03:28:36;11.60;99.90
52731;DHT22;38624;53.242;6.974;2023-07-20T03:31:03;11.60;99.90
52731;DHT22;38624;53.242;6.974;2023-07-20T03:33:29;11.60;99.90
52731;DHT22;38624;53.242;6.974;2023-07-20T03:35:56;11.50;99.90
52731;DHT22;38624;53.242;6.974;2023-07-20T03:38:23;11.50;99.90
52731;DHT22;38624;53.242;6.974;2023-07-20T03:40:50;11.50;99.90
52731;DHT22;38624;53.242;6.974;2023-07-20T03:43:16;11.50;99.90
52731;DHT22;38624;53.242;6.974;2023-07-20T03:45:42;11.50;99.90
52731;DHT22;38624;53.242;6.974;2023-07-20T03:48:08;11.50;99.90
52731;DHT22;38624;53.242;6.974;2023-07-20T03:50:34;11.50;99.90
52731;DHT22;38624;53.242;6.974;2023-07-20T03:52:59;11.40;99.90
52731;DHT22;38624;53.242;6.974;2023-07-20T03:55:25;11.40;99.90
52731;DHT22;38624;53.242;6.974;2023-07-20T03:57:51;11.50;99.90
52731;DHT22;38624;53.242;6.974;2023-07-20T04:00:17;11.50;99.90
52731;DHT22;38624;53.242;6.974;2023-07-20T04:02:43;11.50;99.90
52731;DHT22;38624;53.242;6.974;2023-07-20T04:05:09;11.50;99.90
52731;DHT22;38624;53.242;6.974;2023-07-20T04:07:35;11.50;99.90
52731;DHT22;38624;53.242;6.974;2023-07-20T04:10:00;11.50;99.90
52731;DHT22;38624;53.242;6.974;2023-07-20T04:12:26;11.60;99.90
52731;DHT22;38624;53.242;6.974;2023-07-20T04:14:52;11.60;99.90
52731;DHT22;38624;53.242;6.974;2023-07-20T04:17:18;11.70;99.90
52731;DHT22;38624;53.242;6.974;2023-07-20T04:19:44;11.80;99.90
52731;DHT22;38624;53.242;6.974;2023-07-20T04:22:10;11.90;99.90
52731;DHT22;38624;53.242;6.974;2023-07-20T04:24:35;11.90;99.90
52731;DHT22;38624;53.242;6.974;2023-07-20T04:27:01;12.00;99.90
52731;DHT22;38624;53.242;6.974;2023-07-20T04:29:27;11.90;99.90
52731;DHT22;38624;53.242;6.974;2023-07-20T04:31:53;11.90;99.90
52731;DHT22;38624;53.242;6.974;2023-07-20T04:34:18;11.90;99.90
52731;DHT22;38624;53.242;6.974;2023-07-20T04:36:44;12.00;99.90
52731;DHT22;38624;53.242;6.974;2023-07-20T04:39:10;12.10;99.90
52731;DHT22;38624;53.242;6.974;2023-07-20T04:41:36;12.10;99.90
52731;DHT22;38624;53.242;6.974;2023-07-20T04:44:01;12.20;99.90
52731;DHT22;38624;53.242;6.974;2023-07-20T04:46:27;12.30;99.90
52731;DHT22;38624;53.242;6.974;2023-07-20T04:48:53;12.30;99.90
52731;DHT22;38624;53.242;6.974;2023-07-20T04:51:18;12.30;99.90
52731;DHT22;38624;53.242;6.974;2023-07-20T04:53:49;12.20;99.90
52731;DHT22;38624;53.242;6.974;2023-07-20T04:56:15;12.20;99.90
52731;DHT22;38624;53.242;6.974;2023-07-20T04:58:40;12.10;99.90
52731;DHT22;38624;53.242;6.974;2023-07-20T05:01:07;12.00;99.90
52731;DHT22;38624;53.242;6.974;2023-07-20T05:03:33;12.00;99.90
52731;DHT22;38624;53.242;6.974;2023-07-20T05:05:58;12.10;99.90
52731;DHT22;38624;53.242;6.974;2023-07-20T05:08:24;12.10;99.90
52731;DHT22;38624;53.242;6.974;2023-07-20T05:10:50;11.40;99.90
52731;DHT22;38624;53.242;6.974;2023-07-20T05:13:16;12.20;99.90
52731;DHT22;38624;53.242;6.974;2023-07-20T05:15:42;12.20;99.90
52731;DHT22;38624;53.242;6.974;2023-07-20T05:18:08;12.30;99.90
52731;DHT22;38624;53.242;6.974;2023-07-20T05:20:34;12.40;99.90
52731;DHT22;38624;53.242;6.974;2023-07-20T05:23:01;12.40;99.90
52731;DHT22;38624;53.242;6.974;2023-07-20T05:25:26;12.50;99.90
52731;DHT22;38624;53.242;6.974;2023-07-20T05:27:52;12.60;99.90
52731;DHT22;38624;53.242;6.974;2023-07-20T05:30:18;12.60;99.90
52731;DHT22;38624;53.242;6.974;2023-07-20T05:32:44;12.80;99.90
52731;DHT22;38624;53.242;6.974;2023-07-20T05:35:17;12.80;99.90
52731;DHT22;38624;53.242;6.974;2023-07-20T05:37:44;12.90;99.90
52731;DHT22;38624;53.242;6.974;2023-07-20T05:40:10;13.10;99.90
52731;DHT22;38624;53.242;6.974;2023-07-20T05:42:38;13.20;99.90
52731;DHT22;38624;53.242;6.974;2023-07-20T05:45:04;13.20;99.90
52731;DHT22;38624;53.242;6.974;2023-07-20T05:47:30;13.40;99.90
52731;DHT22;38624;53.242;6.974;2023-07-20T05:49:57;13.50;99.90
52731;DHT22;38624;53.242;6.974;2023-07-20T05:52:23;13.60;99.90
52731;DHT22;38624;53.242;6.974;2023-07-20T05:54:48;13.70;99.90
52731;DHT22;38624;53.242;6.974;2023-07-20T05:57:14;13.90;99.90
52731;DHT22;38624;53.242;6.974;2023-07-20T05:59:40;14.00;99.90
52731;DHT22;38624;53.242;6.974;2023-07-20T06:02:10;14.10;99.90
52731;DHT22;38624;53.242;6.974;2023-07-20T06:04:35;14.20;99.90
52731;DHT22;38624;53.242;6.974;2023-07-20T06:07:01;14.20;99.90
52731;DHT22;38624;53.242;6.974;2023-07-20T06:09:27;14.30;99.90
52731;DHT22;38624;53.242;6.974;2023-07-20T06:11:53;14.40;99.90
52731;DHT22;38624;53.242;6.974;2023-07-20T06:14:19;14.50;99.90
52731;DHT22;38624;53.242;6.974;2023-07-20T06:16:45;14.60;99.90
52731;DHT22;38624;53.242;6.974;2023-07-20T06:19:11;14.70;99.90
52731;DHT22;38624;53.242;6.974;2023-07-20T06:21:38;14.80;99.90
52731;DHT22;38624;53.242;6.974;2023-07-20T06:24:04;14.90;99.90
52731;DHT22;38624;53.242;6.974;2023-07-20T06:26:29;15.00;99.90
52731;DHT22;38624;53.242;6.974;2023-07-20T06:28:56;15.10;99.90
52731;DHT22;38624;53.242;6.974;2023-07-20T06:31:22;15.20;99.90
52731;DHT22;38624;53.242;6.974;2023-07-20T06:33:47;15.20;99.90
52731;DHT22;38624;53.242;6.974;2023-07-20T06:36:15;15.30;99.90
52731;DHT22;38624;53.242;6.974;2023-07-20T06:38:41;15.40;99.90
52731;DHT22;38624;53.242;6.974;2023-07-20T06:41:07;15.50;99.90
52731;DHT22;38624;53.242;6.974;2023-07-20T06:43:32;15.60;99.90
52731;DHT22;38624;53.242;6.974;2023-07-20T06:45:58;15.70;99.90
52731;DHT22;38624;53.242;6.974;2023-07-20T06:48:24;15.80;99.90
52731;DHT22;38624;53.242;6.974;2023-07-20T06:50:49;15.90;99.90
52731;DHT22;38624;53.242;6.974;2023-07-20T06:53:15;15.90;99.90
52731;DHT22;38624;53.242;6.974;2023-07-20T06:55:42;16.00;99.90
52731;DHT22;38624;53.242;6.974;2023-07-20T06:58:08;16.10;99.90
52731;DHT22;38624;53.242;6.974;2023-07-20T07:00:34;16.20;99.90
52731;DHT22;38624;53.242;6.974;2023-07-20T07:02:59;16.20;99.90
52731;DHT22;38624;53.242;6.974;2023-07-20T07:05:25;16.30;99.90
52731;DHT22;38624;53.242;6.974;2023-07-20T07:07:52;16.40;99.90
52731;DHT22;38624;53.242;6.974;2023-07-20T07:10:18;16.60;99.90
52731;DHT22;38624;53.242;6.974;2023-07-20T07:12:43;16.70;99.90
52731;DHT22;38624;53.242;6.974;2023-07-20T07:15:09;16.90;99.90
52731;DHT22;38624;53.242;6.974;2023-07-20T07:17:36;17.10;99.90
52731;DHT22;38624;53.242;6.974;2023-07-20T07:20:02;17.00;99.90
52731;DHT22;38624;53.242;6.974;2023-07-20T07:22:29;16.90;99.90
52731;DHT22;38624;53.242;6.974;2023-07-20T07:24:56;16.60;99.90
52731;DHT22;38624;53.242;6.974;2023-07-20T07:27:21;16.20;99.90
52731;DHT22;38624;53.242;6.974;2023-07-20T07:29:47;16.10;99.90
52731;DHT22;38624;53.242;6.974;2023-07-20T07:32:14;16.10;99.90
52731;DHT22;38624;53.242;6.974;2023-07-20T07:34:40;16.10;99.90
52731;DHT22;38624;53.242;6.974;2023-07-20T07:37:06;16.10;99.90
52731;DHT22;38624;53.242;6.974;2023-07-20T07:39:31;16.00;99.90
52731;DHT22;38624;53.242;6.974;2023-07-20T07:41:57;16.00;99.90
52731;DHT22;38624;53.242;6.974;2023-07-20T07:44:23;16.30;99.90
52731;DHT22;38624;53.242;6.974;2023-07-20T07:46:50;16.30;99.90
52731;DHT22;38624;53.242;6.974;2023-07-20T07:49:16;16.40;99.90
52731;DHT22;38624;53.242;6.974;2023-07-20T07:51:42;16.70;99.90
52731;DHT22;38624;53.242;6.974;2023-07-20T07:54:08;16.70;99.90
52731;DHT22;38624;53.242;6.974;2023-07-20T07:56:33;16.50;99.90
52731;DHT22;38624;53.242;6.974;2023-07-20T07:58:59;16.20;99.90
52731;DHT22;38624;53.242;6.974;2023-07-20T08:01:25;15.40;99.90
52731;DHT22;38624;53.242;6.974;2023-07-20T08:03:51;15.20;99.90
52731;DHT22;38624;53.242;6.974;2023-07-20T08:06:17;15.20;99.90
52731;DHT22;38624;53.242;6.974;2023-07-20T08:08:43;15.20;99.90
52731;DHT22;38624;53.242;6.974;2023-07-20T08:11:09;15.10;99.90
52731;DHT22;38624;53.242;6.974;2023-07-20T08:13:35;15.10;99.90
52731;DHT22;38624;53.242;6.974;2023-07-20T08:16:01;15.20;99.90
52731;DHT22;38624;53.242;6.974;2023-07-20T08:18:27;15.50;99.90
52731;DHT22;38624;53.242;6.974;2023-07-20T08:20:53;15.90;99.90
52731;DHT22;38624;53.242;6.974;2023-07-20T08:23:20;16.30;99.90
52731;DHT22;38624;53.242;6.974;2023-07-20T08:25:45;16.60;99.90
52731;DHT22;38624;53.242;6.974;2023-07-20T08:28:13;16.80;99.90
52731;DHT22;38624;53.242;6.974;2023-07-20T08:30:46;17.00;99.90
52731;DHT22;38624;53.242;6.974;2023-07-20T08:33:19;17.10;99.90
52731;DHT22;38624;53.242;6.974;2023-07-20T08:35:45;17.40;99.90
52731;DHT22;38624;53.242;6.974;2023-07-20T08:38:11;17.70;99.90
52731;DHT22;38624;53.242;6.974;2023-07-20T08:40:45;17.70;99.90
52731;DHT22;38624;53.242;6.974;2023-07-20T08:43:11;17.80;99.90
52731;DHT22;38624;53.242;6.974;2023-07-20T08:45:39;17.90;99.90
52731;DHT22;38624;53.242;6.974;2023-07-20T08:48:06;18.00;99.90
52731;DHT22;38624;53.242;6.974;2023-07-20T08:50:33;18.20;99.90
52731;DHT22;38624;53.242;6.974;2023-07-20T08:53:00;18.40;99.90
52731;DHT22;38624;53.242;6.974;2023-07-20T08:55:26;18.20;99.90
52731;DHT22;38624;53.242;6.974;2023-07-20T08:57:57;17.90;99.90
52731;DHT22;38624;53.242;6.974;2023-07-20T09:00:24;18.90;99.90
52731;DHT22;38624;53.242;6.974;2023-07-20T09:02:51;18.10;99.90
52731;DHT22;38624;53.242;6.974;2023-07-20T09:05:21;18.30;99.90
52731;DHT22;38624;53.242;6.974;2023-07-20T09:07:48;18.60;99.90
52731;DHT22;38624;53.242;6.974;2023-07-20T09:10:14;18.10;99.90
52731;DHT22;38624;53.242;6.974;2023-07-20T09:12:42;17.70;99.90
52731;DHT22;38624;53.242;6.974;2023-07-20T09:15:08;17.60;99.90
52731;DHT22;38624;53.242;6.974;2023-07-20T09:17:34;17.90;99.90
52731;DHT22;38624;53.242;6.974;2023-07-20T09:20:07;18.30;99.90
52731;DHT22;38624;53.242;6.974;2023-07-20T09:22:37;18.40;99.90
52731;DHT22;38624;53.242;6.974;2023-07-20T09:25:07;18.70;99.90
52731;DHT22;38624;53.242;6.974;2023-07-20T09:27:41;18.90;99.90
52731;DHT22;38624;53.242;6.974;2023-07-20T09:30:08;19.00;99.90
52731;DHT22;38624;53.242;6.974;2023-07-20T09:32:48;18.60;99.90
52731;DHT22;38624;53.242;6.974;2023-07-20T09:35:19;18.70;99.90
52731;DHT22;38624;53.242;6.974;2023-07-20T09:37:53;19.00;99.90
52731;DHT22;38624;53.242;6.974;2023-07-20T09:40:20;18.80;99.90
52731;DHT22;38624;53.242;6.974;2023-07-20T09:42:47;18.30;99.90
52731;DHT22;38624;53.242;6.974;2023-07-20T09:45:13;18.50;99.90
52731;DHT22;38624;53.242;6.974;2023-07-20T09:47:39;18.60;99.90
52731;DHT22;38624;53.242;6.974;2023-07-20T09:50:07;18.90;99.90
52731;DHT22;38624;53.242;6.974;2023-07-20T09:52:42;19.20;99.90
52731;DHT22;38624;53.242;6.974;2023-07-20T09:55:10;19.50;99.90
52731;DHT22;38624;53.242;6.974;2023-07-20T09:57:37;19.50;99.90
52731;DHT22;38624;53.242;6.974;2023-07-20T10:00:06;19.80;99.90
52731;DHT22;38624;53.242;6.974;2023-07-20T10:02:44;20.10;99.90
52731;DHT22;38624;53.242;6.974;2023-07-20T10:05:12;20.10;99.90
52731;DHT22;38624;53.242;6.974;2023-07-20T10:07:52;19.90;99.90
52731;DHT22;38624;53.242;6.974;2023-07-20T10:10:18;19.50;99.90
52731;DHT22;38624;53.242;6.974;2023-07-20T10:12:47;19.10;99.90
52731;DHT22;38624;53.242;6.974;2023-07-20T10:15:20;18.80;99.90
52731;DHT22;38624;53.242;6.974;2023-07-20T10:20:26;19.90;99.90
52731;DHT22;38624;53.242;6.974;2023-07-20T10:22:53;20.10;99.90
52731;DHT22;38624;53.242;6.974;2023-07-20T10:25:22;20.20;99.90
52731;DHT22;38624;53.242;6.974;2023-07-20T10:27:48;19.80;99.90
52731;DHT22;38624;53.242;6.974;2023-07-20T10:30:14;19.80;99.60
52731;DHT22;38624;53.242;6.974;2023-07-20T10:32:41;19.90;99.90
52731;DHT22;38624;53.242;6.974;2023-07-20T10:35:15;20.40;99.90
52731;DHT22;38624;53.242;6.974;2023-07-20T10:37:49;20.80;99.90
52731;DHT22;38624;53.242;6.974;2023-07-20T10:40:32;20.30;99.90
52731;DHT22;38624;53.242;6.974;2023-07-20T10:43:03;19.50;97.50
52731;DHT22;38624;53.242;6.974;2023-07-20T10:50:43;20.50;98.90
52731;DHT22;38624;53.242;6.974;2023-07-20T10:53:18;19.80;98.30
52731;DHT22;38624;53.242;6.974;2023-07-20T10:55:44;19.50;99.20
52731;DHT22;38624;53.242;6.974;2023-07-20T10:58:14;19.30;98.90
52731;DHT22;38624;53.242;6.974;2023-07-20T11:01:05;19.70;99.90
52731;DHT22;38624;53.242;6.974;2023-07-20T11:03:34;19.90;98.50
52731;DHT22;38624;53.242;6.974;2023-07-20T11:09:13;20.60;98.40
52731;DHT22;38624;53.242;6.974;2023-07-20T11:11:44;20.80;98.60
52731;DHT22;38624;53.242;6.974;2023-07-20T11:14:10;20.90;96.90
52731;DHT22;38624;53.242;6.974;2023-07-20T11:16:42;20.30;97.30
52731;DHT22;38624;53.242;6.974;2023-07-20T11:21:44;19.60;98.60
52731;DHT22;38624;53.242;6.974;2023-07-20T11:24:10;19.60;98.60
52731;DHT22;38624;53.242;6.974;2023-07-20T11:26:54;20.00;98.90
52731;DHT22;38624;53.242;6.974;2023-07-20T11:29:22;20.20;96.10
52731;DHT22;38624;53.242;6.974;2023-07-20T11:31:49;20.10;96.90
52731;DHT22;38624;53.242;6.974;2023-07-20T11:34:15;20.00;97.50
52731;DHT22;38624;53.242;6.974;2023-07-20T11:36:45;19.70;98.20
52731;DHT22;38624;53.242;6.974;2023-07-20T11:39:13;19.80;99.30
52731;DHT22;38624;53.242;6.974;2023-07-20T11:41:44;19.70;98.70
52731;DHT22;38624;53.242;6.974;2023-07-20T11:44:11;19.80;98.10
52731;DHT22;38624;53.242;6.974;2023-07-20T11:46:39;19.70;99.00
52731;DHT22;38624;53.242;6.974;2023-07-20T11:49:05;19.40;99.00
52731;DHT22;38624;53.242;6.974;2023-07-20T11:51:32;19.40;98.60
52731;DHT22;38624;53.242;6.974;2023-07-20T11:53:58;19.80;98.60
52731;DHT22;38624;53.242;6.974;2023-07-20T11:56:27;20.10;98.40
52731;DHT22;38624;53.242;6.974;2023-07-20T11:58:59;19.70;97.90
52731;DHT22;38624;53.242;6.974;2023-07-20T12:01:27;19.80;98.10
52731;DHT22;38624;53.242;6.974;2023-07-20T12:04:01;19.80;97.10
52731;DHT22;38624;53.242;6.974;2023-07-20T12:06:29;19.90;98.00
52731;DHT22;38624;53.242;6.974;2023-07-20T12:08:57;20.10;97.20
52731;DHT22;38624;53.242;6.974;2023-07-20T12:11:37;20.10;96.10
52731;DHT22;38624;53.242;6.974;2023-07-20T12:14:04;20.30;97.80
52731;DHT22;38624;53.242;6.974;2023-07-20T12:16:31;20.60;97.50
52731;DHT22;38624;53.242;6.974;2023-07-20T12:19:05;20.40;96.80
52731;DHT22;38624;53.242;6.974;2023-07-20T12:21:33;20.10;96.50
52731;DHT22;38624;53.242;6.974;2023-07-20T12:23:59;20.20;97.20
52731;DHT22;38624;53.242;6.974;2023-07-20T12:26:25;20.20;96.30
52731;DHT22;38624;53.242;6.974;2023-07-20T12:28:52;20.00;95.40
52731;DHT22;38624;53.242;6.974;2023-07-20T12:31:18;19.70;95.60
52731;DHT22;38624;53.242;6.974;2023-07-20T12:33:44;19.70;96.00
52731;DHT22;38624;53.242;6.974;2023-07-20T12:36:10;19.80;96.00
52731;DHT22;38624;53.242;6.974;2023-07-20T12:38:36;19.70;95.90
52731;DHT22;38624;53.242;6.974;2023-07-20T12:41:02;19.80;96.70
52731;DHT22;38624;53.242;6.974;2023-07-20T12:43:29;20.10;96.80
52731;DHT22;38624;53.242;6.974;2023-07-20T12:45:56;21.00;97.60
52731;DHT22;38624;53.242;6.974;2023-07-20T12:48:22;20.70;97.20
52731;DHT22;38624;53.242;6.974;2023-07-20T12:50:48;21.10;96.00
52731;DHT22;38624;53.242;6.974;2023-07-20T12:53:15;21.00;95.90
52731;DHT22;38624;53.242;6.974;2023-07-20T12:55:41;21.10;95.50
52731;DHT22;38624;53.242;6.974;2023-07-20T12:58:07;21.20;95.30
52731;DHT22;38624;53.242;6.974;2023-07-20T13:00:33;20.60;94.90
52731;DHT22;38624;53.242;6.974;2023-07-20T13:02:59;20.30;95.10
52731;DHT22;38624;53.242;6.974;2023-07-20T13:05:25;20.20;95.20
52731;DHT22;38624;53.242;6.974;2023-07-20T13:07:50;19.90;95.00
52731;DHT22;38624;53.242;6.974;2023-07-20T13:10:16;20.10;96.00
52731;DHT22;38624;53.242;6.974;2023-07-20T13:12:43;20.00;96.00
52731;DHT22;38624;53.242;6.974;2023-07-20T13:15:10;20.10;95.70
52731;DHT22;38624;53.242;6.974;2023-07-20T13:17:37;19.80;95.60
52731;DHT22;38624;53.242;6.974;2023-07-20T13:20:05;19.60;95.70
52731;DHT22;38624;53.242;6.974;2023-07-20T13:22:32;19.50;95.70
52731;DHT22;38624;53.242;6.974;2023-07-20T13:24:57;19.70;96.50
52731;DHT22;38624;53.242;6.974;2023-07-20T13:27:23;19.50;96.50
52731;DHT22;38624;53.242;6.974;2023-07-20T13:29:51;19.30;96.70
52731;DHT22;38624;53.242;6.974;2023-07-20T13:32:17;19.30;97.20
52731;DHT22;38624;53.242;6.974;2023-07-20T13:34:46;19.10;97.00
52731;DHT22;38624;53.242;6.974;2023-07-20T13:37:12;19.10;97.10
52731;DHT22;38624;53.242;6.974;2023-07-20T13:39:38;19.20;97.90
52731;DHT22;38624;53.242;6.974;2023-07-20T13:42:05;19.30;98.20
52731;DHT22;38624;53.242;6.974;2023-07-20T13:44:34;19.40;98.50
52731;DHT22;38624;53.242;6.974;2023-07-20T13:47:01;19.20;98.40
52731;DHT22;38624;53.242;6.974;2023-07-20T13:49:26;18.90;99.30
52731;DHT22;38624;53.242;6.974;2023-07-20T13:51:52;19.10;99.50
52731;DHT22;38624;53.242;6.974;2023-07-20T13:54:18;19.20;99.90
52731;DHT22;38624;53.242;6.974;2023-07-20T13:56:44;18.30;99.90
52731;DHT22;38624;53.242;6.974;2023-07-20T13:59:09;18.40;99.90
52731;DHT22;38624;53.242;6.974;2023-07-20T14:01:35;18.90;99.90
52731;DHT22;38624;53.242;6.974;2023-07-20T14:04:02;19.10;99.90
52731;DHT22;38624;53.242;6.974;2023-07-20T14:06:32;19.40;99.90
52731;DHT22;38624;53.242;6.974;2023-07-20T14:08:58;19.60;99.90
52731;DHT22;38624;53.242;6.974;2023-07-20T14:11:24;19.80;99.90
52731;DHT22;38624;53.242;6.974;2023-07-20T14:13:51;20.20;99.90
52731;DHT22;38624;53.242;6.974;2023-07-20T14:16:21;20.40;99.90
52731;DHT22;38624;53.242;6.974;2023-07-20T14:18:48;20.10;99.90
52731;DHT22;38624;53.242;6.974;2023-07-20T14:21:18;20.30;99.90
52731;DHT22;38624;53.242;6.974;2023-07-20T14:23:46;20.20;99.90
52731;DHT22;38624;53.242;6.974;2023-07-20T14:26:12;20.50;99.90
52731;DHT22;38624;53.242;6.974;2023-07-20T14:28:38;20.50;99.40
52731;DHT22;38624;53.242;6.974;2023-07-20T14:31:04;20.80;98.40
52731;DHT22;38624;53.242;6.974;2023-07-20T14:33:31;20.50;98.90
52731;DHT22;38624;53.242;6.974;2023-07-20T14:35:56;20.90;98.40
52731;DHT22;38624;53.242;6.974;2023-07-20T14:38:22;20.90;99.10
52731;DHT22;38624;53.242;6.974;2023-07-20T14:40:48;20.60;98.80
52731;DHT22;38624;53.242;6.974;2023-07-20T14:43:13;20.80;98.60
52731;DHT22;38624;53.242;6.974;2023-07-20T14:45:42;20.40;98.00
52731;DHT22;38624;53.242;6.974;2023-07-20T14:48:07;20.80;98.20
52731;DHT22;38624;53.242;6.974;2023-07-20T14:50:34;21.00;98.90
52731;DHT22;38624;53.242;6.974;2023-07-20T14:53:00;21.20;98.70
52731;DHT22;38624;53.242;6.974;2023-07-20T14:55:26;21.60;98.30
52731;DHT22;38624;53.242;6.974;2023-07-20T14:57:52;21.70;96.60
52731;DHT22;38624;53.242;6.974;2023-07-20T15:00:18;21.10;97.10
52731;DHT22;38624;53.242;6.974;2023-07-20T15:02:45;21.10;97.60
52731;DHT22;38624;53.242;6.974;2023-07-20T15:05:11;21.30;96.00
52731;DHT22;38624;53.242;6.974;2023-07-20T15:07:37;20.80;96.10
52731;DHT22;38624;53.242;6.974;2023-07-20T15:10:04;20.30;96.40
52731;DHT22;38624;53.242;6.974;2023-07-20T15:12:30;20.60;97.30
52731;DHT22;38624;53.242;6.974;2023-07-20T15:15:12;20.60;96.60
52731;DHT22;38624;53.242;6.974;2023-07-20T15:17:39;20.40;97.50
52731;DHT22;38624;53.242;6.974;2023-07-20T15:20:08;21.50;97.10
52731;DHT22;38624;53.242;6.974;2023-07-20T15:22:34;22.90;94.70
52731;DHT22;38624;53.242;6.974;2023-07-20T15:25:05;22.60;93.90
52731;DHT22;38624;53.242;6.974;2023-07-20T15:27:32;23.30;93.40
52731;DHT22;38624;53.242;6.974;2023-07-20T15:29:59;24.50;92.40
52731;DHT22;38624;53.242;6.974;2023-07-20T15:32:24;25.80;91.20
52731;DHT22;38624;53.242;6.974;2023-07-20T15:34:50;26.20;87.20
52731;DHT22;38624;53.242;6.974;2023-07-20T15:37:16;25.00;84.80
52731;DHT22;38624;53.242;6.974;2023-07-20T15:39:41;23.90;87.30
52731;DHT22;38624;53.242;6.974;2023-07-20T15:42:07;22.80;89.00
52731;DHT22;38624;53.242;6.974;2023-07-20T15:44:33;22.20;90.60
52731;DHT22;38624;53.242;6.974;2023-07-20T15:47:00;21.70;91.40
52731;DHT22;38624;53.242;6.974;2023-07-20T15:49:27;21.20;91.60
52731;DHT22;38624;53.242;6.974;2023-07-20T15:51:55;20.60;92.10